Waverly, Georgia
Current Conditions -  °F | °C
As of 8:32 PM on Sunday 23 Nov 2014 (Local Time) from KSSI Reporting Station
Haze Haze  
Wind Chill: 66°   Ceiling: 6500
Heat Index: 66°   Visibility: 5mi
Dew Point: 65°   Wind: 3mph
Humidity: 96%   Direction: 190°S
Pressure: 29.9"   Gusts: NA
Location:  31.1°N, 81.72°W
Report Text: KSSI 240132Z AUTO 19003KT 5SM BR SCT011 BKN065 BKN075 19/18 A2990 RMK AO2 T01890183
Loading
Personal Weather Stations






























Interactive Weather Map New forecast layout! Learn more

10-Day Weather Forecast

Advertisements
Track Severe Weather on mobile